createdAt,value
2023-01-11T00:00:48.467Z,3.30
2023-01-11T00:03:18.909Z,3.30
2023-01-11T00:05:50.602Z,3.10
2023-01-11T00:08:22.082Z,3.53
2023-01-11T00:10:54.098Z,3.47
2023-01-11T00:13:27.177Z,3.27
2023-01-11T00:15:59.114Z,3.23
2023-01-11T00:18:30.609Z,3.93
2023-01-11T00:21:08.237Z,3.20
2023-01-11T00:23:39.636Z,3.23
2023-01-11T00:26:13.849Z,3.12
2023-01-11T00:28:47.509Z,3.10
2023-01-11T00:31:21.671Z,3.30
2023-01-11T00:33:53.129Z,3.37
2023-01-11T00:36:23.678Z,3.33
2023-01-11T00:38:55.645Z,3.33
2023-01-11T00:41:43.954Z,2.77
2023-01-11T00:44:32.668Z,3.27
2023-01-11T00:47:21.362Z,3.62
2023-01-11T00:49:52.721Z,2.83
2023-01-11T00:52:23.370Z,2.97
2023-01-11T00:54:55.481Z,3.07
2023-01-11T00:57:31.909Z,3.17
2023-01-11T01:00:04.473Z,3.20
2023-01-11T01:02:36.336Z,3.07
2023-01-11T01:05:07.683Z,3.43
2023-01-11T01:07:38.729Z,2.90
2023-01-11T01:10:10.863Z,3.50
2023-01-11T01:13:01.108Z,3.87
2023-01-11T01:15:38.231Z,3.70
2023-01-11T01:18:14.632Z,3.20
2023-01-11T01:20:48.256Z,3.60
2023-01-11T01:23:18.792Z,3.27
2023-01-11T01:25:49.320Z,2.90
2023-01-11T01:28:22.334Z,3.20
2023-01-11T01:30:53.275Z,3.20
2023-01-11T01:33:24.699Z,3.10
2023-01-11T01:35:57.537Z,3.33
2023-01-11T01:38:32.412Z,2.90
2023-01-11T01:41:04.068Z,3.33
2023-01-11T01:44:03.005Z,3.20
2023-01-11T01:46:37.398Z,3.20
2023-01-11T01:49:16.799Z,3.23
2023-01-11T01:51:53.016Z,3.07
2023-01-11T01:54:33.523Z,2.90
2023-01-11T01:57:13.100Z,2.90
2023-01-11T01:59:46.038Z,3.23
2023-01-11T02:02:25.537Z,2.90
2023-01-11T02:04:55.648Z,2.60
2023-01-11T02:07:37.276Z,2.73
2023-01-11T02:10:15.128Z,2.93
2023-01-11T02:12:53.426Z,2.63
2023-01-11T02:15:25.953Z,3.58
2023-01-11T02:17:56.619Z,3.40
2023-01-11T02:20:45.407Z,2.95
2023-01-11T02:23:32.358Z,2.30
2023-01-11T02:26:21.180Z,2.50
2023-01-11T02:28:57.200Z,2.33
2023-01-11T02:31:34.171Z,2.85
2023-01-11T02:34:34.858Z,2.47
2023-01-11T02:37:41.983Z,2.20
2023-01-11T02:40:18.381Z,2.77
2023-01-11T02:43:22.095Z,2.27
2023-01-11T02:46:16.448Z,2.10
2023-01-11T02:48:52.891Z,2.20
2023-01-11T02:51:36.610Z,2.10
2023-01-11T02:54:14.169Z,2.08
2023-01-11T02:56:47.601Z,2.43
2023-01-11T02:59:24.243Z,2.40
2023-01-11T03:01:58.277Z,2.27
2023-01-11T03:04:34.552Z,2.20
2023-01-11T03:07:29.415Z,2.33
2023-01-11T03:10:28.590Z,2.20
2023-01-11T03:13:04.755Z,2.40
2023-01-11T03:16:01.067Z,1.90
2023-01-11T03:18:40.535Z,2.10
2023-01-11T03:21:17.096Z,2.07
2023-01-11T03:23:59.760Z,2.15
2023-01-11T03:26:33.259Z,2.10
2023-01-11T03:29:20.372Z,2.15
2023-01-11T03:32:14.155Z,2.30
2023-01-11T03:34:53.897Z,2.60
2023-01-11T03:37:35.571Z,1.70
2023-01-11T03:40:11.701Z,2.10
2023-01-11T03:43:03.139Z,2.00
2023-01-11T03:45:37.971Z,2.20
2023-01-11T03:48:12.513Z,2.10
2023-01-11T03:50:44.654Z,1.90
2023-01-11T03:53:19.496Z,2.00
2023-01-11T03:55:53.989Z,2.30
2023-01-11T03:58:27.811Z,2.30
2023-01-11T04:00:59.535Z,2.03
2023-01-11T04:03:30.360Z,2.22
2023-01-11T04:06:03.157Z,2.20
2023-01-11T04:08:34.061Z,2.12
2023-01-11T04:11:07.978Z,2.03
2023-01-11T04:13:40.140Z,2.05
2023-01-11T04:16:11.115Z,2.10
2023-01-11T04:18:42.931Z,1.90
2023-01-11T04:21:15.477Z,1.90
2023-01-11T04:23:47.613Z,2.20
2023-01-11T04:26:18.447Z,1.95
2023-01-11T04:28:49.412Z,2.20
2023-01-11T04:31:20.240Z,2.50
2023-01-11T04:33:52.916Z,1.80
2023-01-11T04:36:26.000Z,2.05
2023-01-11T04:38:57.956Z,2.00
2023-01-11T04:41:46.133Z,2.43
2023-01-11T04:44:21.264Z,1.87
2023-01-11T04:46:50.536Z,1.60
2023-01-11T04:49:21.642Z,1.80
2023-01-11T04:51:53.245Z,1.97
2023-01-11T04:54:24.965Z,2.00
2023-01-11T04:56:55.594Z,2.37
2023-01-11T04:59:26.378Z,2.23
2023-01-11T05:01:58.455Z,2.43
2023-01-11T05:04:36.416Z,2.30
2023-01-11T05:07:08.958Z,2.30
2023-01-11T05:09:42.934Z,2.13
2023-01-11T05:12:20.791Z,2.10
2023-01-11T05:14:46.354Z,2.15
2023-01-11T05:17:19.397Z,1.83
2023-01-11T05:19:51.134Z,2.08
2023-01-11T05:22:25.594Z,1.90
2023-01-11T05:24:56.586Z,2.20
2023-01-11T05:27:27.179Z,2.25
2023-01-11T05:29:59.127Z,2.63
2023-01-11T05:32:33.373Z,2.43
2023-01-11T05:35:07.744Z,2.10
2023-01-11T05:37:45.608Z,2.10
2023-01-11T05:40:14.504Z,2.17
2023-01-11T05:42:49.538Z,1.82
2023-01-11T05:45:33.009Z,1.77
2023-01-11T05:48:04.081Z,1.98
2023-01-11T05:50:37.721Z,1.80
2023-01-11T05:53:11.398Z,2.00
2023-01-11T05:55:43.364Z,2.30
2023-01-11T05:58:15.633Z,2.20
2023-01-11T06:00:51.321Z,1.87
2023-01-11T06:03:24.894Z,2.05
2023-01-11T06:05:58.687Z,2.10
2023-01-11T06:08:29.731Z,2.00
2023-01-11T06:11:01.033Z,2.20
2023-01-11T06:13:33.862Z,2.00
2023-01-11T06:16:08.798Z,2.22
2023-01-11T06:18:42.156Z,2.42
2023-01-11T06:21:15.470Z,1.92
2023-01-11T06:23:50.398Z,1.97
2023-01-11T06:26:25.049Z,2.50
2023-01-11T06:28:55.879Z,2.20
2023-01-11T06:31:28.535Z,2.63
2023-01-11T06:34:00.041Z,2.23
2023-01-11T06:36:33.338Z,2.27
2023-01-11T06:39:05.065Z,2.50
2023-01-11T06:41:40.318Z,2.30
2023-01-11T06:44:11.398Z,2.60
2023-01-11T06:46:41.974Z,2.00
2023-01-11T06:49:13.120Z,1.90
2023-01-11T06:51:44.006Z,2.10
2023-01-11T06:54:18.682Z,1.90
2023-01-11T06:56:49.492Z,2.20
2023-01-11T06:59:24.946Z,1.93
2023-01-11T07:01:58.831Z,1.90
2023-01-11T07:04:30.990Z,2.20
2023-01-11T07:07:02.157Z,1.70
2023-01-11T07:09:32.728Z,2.10
2023-01-11T07:12:04.183Z,2.10
2023-01-11T07:14:38.889Z,1.90
2023-01-11T07:17:10.505Z,2.22
2023-01-11T07:19:45.530Z,2.15
2023-01-11T07:22:18.170Z,2.25
2023-01-11T07:24:53.555Z,2.00
2023-01-11T07:27:24.286Z,2.10
2023-01-11T07:30:00.342Z,2.53
2023-01-11T07:32:36.895Z,2.70
2023-01-11T07:35:08.756Z,2.50
2023-01-11T07:37:41.616Z,2.30
2023-01-11T07:40:20.819Z,2.17
2023-01-11T07:43:15.920Z,2.10
2023-01-11T07:45:51.879Z,2.08
2023-01-11T07:48:26.702Z,2.93
2023-01-11T07:50:57.552Z,2.50
2023-01-11T07:53:29.537Z,2.83
2023-01-11T07:56:01.814Z,3.87
2023-01-11T07:58:32.651Z,2.50
2023-01-11T08:01:06.150Z,2.00
2023-01-11T08:03:37.799Z,2.20
2023-01-11T08:06:08.757Z,2.05
2023-01-11T08:08:45.501Z,2.37
2023-01-11T08:11:37.042Z,2.50
2023-01-11T08:14:28.368Z,2.50
2023-01-11T08:17:00.737Z,2.27
2023-01-11T08:19:32.864Z,2.50
2023-01-11T08:22:05.311Z,2.40
2023-01-11T08:24:38.500Z,2.50
2023-01-11T08:27:10.521Z,2.67
2023-01-11T08:29:44.907Z,2.40
2023-01-11T08:32:15.720Z,2.80
2023-01-11T08:34:48.236Z,2.60
2023-01-11T08:37:20.374Z,3.80
2023-01-11T08:39:57.224Z,2.95
2023-01-11T08:42:29.554Z,2.80
2023-01-11T08:45:01.898Z,2.60
2023-01-11T08:47:34.645Z,2.33
2023-01-11T08:50:09.777Z,3.10
2023-01-11T08:52:45.664Z,3.45
2023-01-11T08:55:17.485Z,3.25
2023-01-11T08:57:49.529Z,2.97
2023-01-11T09:00:28.043Z,3.83
2023-01-11T09:03:05.809Z,4.45
2023-01-11T09:05:37.607Z,2.65
2023-01-11T09:08:09.720Z,3.22
2023-01-11T09:10:41.228Z,3.67
2023-01-11T09:13:14.241Z,2.85
2023-01-11T09:15:48.910Z,2.80
2023-01-11T09:18:31.510Z,2.62
2023-01-11T09:21:03.192Z,2.70
2023-01-11T09:23:33.831Z,2.80
2023-01-11T09:26:04.468Z,2.40
2023-01-11T09:28:42.129Z,2.30
2023-01-11T09:31:18.549Z,2.73
2023-01-11T09:33:48.967Z,2.47
2023-01-11T09:36:22.614Z,2.70
2023-01-11T09:38:56.319Z,2.70
2023-01-11T09:41:47.054Z,2.70
2023-01-11T09:44:26.007Z,2.47
2023-01-11T09:47:03.280Z,2.87
2023-01-11T09:49:38.585Z,3.22
2023-01-11T09:52:25.523Z,2.67
2023-01-11T09:54:59.879Z,2.83
2023-01-11T09:57:58.494Z,3.08
2023-01-11T10:00:44.350Z,3.30
2023-01-11T10:03:42.917Z,2.85
2023-01-11T10:06:37.334Z,3.05
2023-01-11T10:18:31.763Z,3.23
2023-01-11T10:18:40.560Z,3.60
2023-01-11T10:20:42.650Z,4.50
2023-01-11T10:23:17.356Z,3.57
2023-01-11T10:25:54.743Z,3.60
2023-01-11T10:28:35.440Z,3.65
2023-01-11T10:31:15.566Z,3.52
2023-01-11T10:33:52.313Z,4.45
2023-01-11T10:37:07.224Z,3.77
2023-01-11T10:40:16.424Z,3.10
2023-01-11T10:42:50.081Z,3.60
2023-01-11T10:45:27.444Z,3.50
2023-01-11T10:48:26.703Z,3.02
2023-01-11T10:51:12.368Z,2.70
2023-01-11T10:53:59.885Z,2.92
2023-01-11T10:56:33.435Z,3.08
2023-01-11T10:59:09.778Z,2.72
2023-01-11T11:02:07.166Z,3.10
2023-01-11T11:05:10.212Z,3.33
2023-01-11T11:08:00.118Z,2.77
2023-01-11T11:10:49.781Z,2.95
2023-01-11T11:13:45.008Z,3.10
2023-01-11T11:16:27.928Z,4.00
2023-01-11T11:19:02.834Z,3.77
2023-01-11T11:21:36.500Z,2.67
2023-01-11T11:24:10.623Z,3.00
2023-01-11T11:26:49.784Z,3.00
2023-01-11T11:29:27.909Z,3.05
2023-01-11T11:32:04.245Z,3.30
2023-01-11T11:34:34.850Z,2.92
2023-01-11T11:37:08.080Z,3.17
2023-01-11T11:39:38.814Z,3.10
2023-01-11T11:42:13.361Z,3.27
2023-01-11T11:44:44.991Z,2.60
2023-01-11T11:47:19.783Z,3.77
2023-01-11T11:49:50.328Z,2.77
2023-01-11T11:52:20.923Z,3.05
2023-01-11T11:55:03.710Z,3.37
2023-01-11T11:57:34.029Z,3.42
2023-01-11T12:00:10.134Z,3.60
2023-01-11T12:02:43.757Z,3.45
2023-01-11T12:05:18.530Z,3.80
2023-01-11T12:07:55.941Z,3.92
2023-01-11T12:10:30.717Z,3.27
2023-01-11T12:13:05.044Z,3.10
2023-01-11T12:15:36.847Z,2.90
2023-01-11T12:18:34.041Z,3.67
2023-01-11T12:21:21.507Z,2.90
2023-01-11T12:24:27.164Z,3.33
2023-01-11T12:27:21.987Z,3.33
2023-01-11T12:30:07.100Z,3.37
2023-01-11T12:33:10.283Z,3.10
2023-01-11T12:35:57.342Z,2.65
2023-01-11T12:38:34.190Z,3.05
2023-01-11T12:41:28.721Z,3.00
2023-01-11T12:44:22.599Z,3.37
2023-01-11T12:47:28.610Z,3.33
2023-01-11T12:50:24.357Z,3.30
2023-01-11T12:53:12.457Z,3.20
2023-01-11T12:55:58.112Z,3.37
2023-01-11T12:58:53.136Z,3.00
2023-01-11T13:01:43.485Z,3.20
2023-01-11T13:04:36.475Z,3.35
2023-01-11T13:07:35.733Z,2.92
2023-01-11T13:10:34.010Z,3.30
2023-01-11T13:13:07.483Z,2.80
2023-01-11T13:15:58.589Z,3.08
2023-01-11T13:18:41.478Z,2.72
2023-01-11T13:21:45.220Z,3.40
2023-01-11T13:24:30.932Z,3.73
2023-01-11T13:27:07.517Z,2.77
2023-01-11T13:29:41.228Z,4.20
2023-01-11T13:32:18.076Z,2.58
2023-01-11T13:35:10.065Z,2.80
2023-01-11T13:38:03.166Z,3.02
2023-01-11T13:40:39.570Z,3.12
2023-01-11T13:43:25.464Z,2.90
2023-01-11T13:46:03.960Z,3.20
2023-01-11T13:48:49.484Z,2.70
2023-01-11T13:51:32.383Z,2.90
2023-01-11T13:54:18.882Z,2.67
2023-01-11T13:56:56.106Z,2.60
2023-01-11T13:59:36.739Z,2.80
2023-01-11T14:02:38.432Z,2.90
2023-01-11T14:05:13.105Z,3.52
2023-01-11T14:07:49.440Z,2.98
2023-01-11T14:10:22.914Z,2.70
2023-01-11T14:13:17.970Z,2.80
2023-01-11T14:16:04.001Z,2.95
2023-01-11T14:18:44.814Z,3.22
2023-01-11T14:21:21.003Z,2.95
2023-01-11T14:23:54.982Z,2.62
2023-01-11T14:26:53.565Z,2.52
2023-01-11T14:29:44.933Z,3.10
2023-01-11T14:32:35.175Z,3.10
2023-01-11T14:35:11.554Z,2.80
2023-01-11T14:38:06.004Z,2.92
2023-01-11T14:40:47.113Z,3.47
2023-01-11T14:43:46.267Z,3.30
2023-01-11T14:46:54.845Z,4.00
2023-01-11T14:49:31.425Z,4.05
2023-01-11T14:52:08.185Z,4.12
2023-01-11T14:54:44.840Z,3.52
2023-01-11T14:57:40.263Z,3.83
2023-01-11T15:00:25.787Z,3.42
2023-01-11T15:03:01.945Z,3.50
2023-01-11T15:05:49.883Z,3.80
2023-01-11T15:08:23.950Z,3.47
2023-01-11T15:11:06.169Z,3.95
2023-01-11T15:13:51.997Z,3.22
2023-01-11T15:16:47.731Z,4.00
2023-01-11T15:19:34.271Z,3.90
2023-01-11T15:22:06.590Z,3.67
2023-01-11T15:24:44.696Z,3.92
2023-01-11T15:27:35.975Z,4.03
2023-01-11T15:30:10.115Z,3.80
2023-01-11T15:32:41.522Z,3.85
2023-01-11T15:35:26.743Z,3.67
2023-01-11T15:38:05.874Z,3.70
2023-01-11T15:40:40.195Z,3.65
2023-01-11T15:43:31.361Z,3.20
2023-01-11T15:46:42.742Z,2.90
2023-01-11T15:49:41.652Z,3.70
2023-01-11T15:52:27.393Z,3.62
2023-01-11T15:55:28.186Z,3.05
2023-01-11T15:58:24.869Z,3.20
2023-01-11T16:01:28.629Z,3.12
2023-01-11T16:04:18.709Z,3.40
2023-01-11T16:06:58.796Z,3.02
2023-01-11T16:10:07.152Z,3.20
2023-01-11T16:12:50.347Z,3.00
2023-01-11T16:15:43.425Z,3.90
2023-01-11T16:18:17.963Z,4.22
2023-01-11T16:21:03.643Z,4.12
2023-01-11T16:23:34.935Z,3.70
2023-01-11T16:26:07.716Z,3.75
2023-01-11T16:28:41.088Z,3.60
2023-01-11T16:31:11.893Z,3.87
2023-01-11T16:33:42.566Z,4.08
2023-01-11T16:36:18.392Z,3.72
2023-01-11T16:39:06.839Z,4.08
2023-01-11T16:41:56.969Z,4.05
2023-01-11T16:44:52.123Z,4.50
2023-01-11T16:47:26.035Z,4.00
2023-01-11T16:50:21.232Z,4.67
2023-01-11T16:52:54.164Z,4.28
2023-01-11T16:55:40.695Z,4.17
2023-01-11T16:58:25.262Z,3.85
2023-01-11T17:01:02.571Z,4.17
2023-01-11T17:03:51.382Z,4.60
2023-01-11T17:06:24.798Z,4.50
2023-01-11T17:08:58.329Z,5.03
2023-01-11T17:11:34.370Z,4.75
2023-01-11T17:14:26.704Z,4.90
2023-01-11T17:16:59.885Z,4.78
2023-01-11T17:19:34.180Z,5.28
2023-01-11T17:22:21.315Z,5.62
2023-01-11T17:24:55.070Z,5.25
2023-01-11T17:27:41.301Z,5.40
2023-01-11T17:30:20.924Z,5.80
2023-01-11T17:32:56.999Z,4.85
2023-01-11T17:35:35.176Z,5.17
2023-01-11T17:38:10.729Z,5.35
2023-01-11T17:40:42.710Z,5.67
2023-01-11T17:43:40.035Z,5.87
2023-01-11T17:46:16.970Z,5.40
2023-01-11T17:48:59.292Z,5.53
2023-01-11T17:51:36.053Z,5.62
2023-01-11T17:54:11.367Z,5.80
2023-01-11T17:56:42.307Z,5.70
2023-01-11T17:59:25.000Z,5.35
2023-01-11T18:01:57.816Z,6.03
2023-01-11T18:04:30.831Z,5.80
2023-01-11T18:07:16.272Z,5.90
2023-01-11T18:09:49.511Z,6.50
2023-01-11T18:12:26.643Z,6.75
2023-01-11T18:15:04.518Z,6.42
2023-01-11T18:17:40.074Z,6.10
2023-01-11T18:20:32.520Z,6.47
2023-01-11T18:23:22.659Z,6.80
2023-01-11T18:25:59.012Z,5.80
2023-01-11T18:28:31.085Z,6.05
2023-01-11T18:31:03.477Z,6.53
2023-01-11T18:33:35.584Z,6.08
2023-01-11T18:36:07.677Z,6.35
2023-01-11T18:38:40.736Z,6.30
2023-01-11T18:41:32.525Z,5.85
2023-01-11T18:44:06.659Z,6.30
2023-01-11T18:46:40.186Z,7.00
2023-01-11T18:49:11.414Z,7.25
2023-01-11T18:51:43.688Z,6.58
2023-01-11T18:54:19.553Z,6.47
2023-01-11T18:56:50.633Z,6.78
2023-01-11T18:59:21.413Z,6.75
2023-01-11T19:02:01.629Z,7.20
2023-01-11T19:04:25.550Z,6.70
2023-01-11T19:06:56.071Z,7.05
2023-01-11T19:09:28.269Z,7.60
2023-01-11T19:11:58.974Z,6.83
2023-01-11T19:14:32.883Z,7.37
2023-01-11T19:17:05.373Z,7.83
2023-01-11T19:19:36.301Z,7.58
2023-01-11T19:22:07.707Z,7.67
2023-01-11T19:24:38.377Z,7.08
2023-01-11T19:27:08.938Z,8.40
2023-01-11T19:29:39.519Z,7.12
2023-01-11T19:32:10.455Z,7.25
2023-01-11T19:34:41.245Z,7.40
2023-01-11T19:37:11.883Z,7.28
2023-01-11T19:39:43.403Z,6.87
2023-01-11T19:42:14.501Z,9.90
2023-01-11T19:44:46.291Z,7.15
2023-01-11T19:47:17.205Z,6.75
2023-01-11T19:49:47.646Z,7.20
2023-01-11T19:52:22.829Z,7.15
2023-01-11T19:54:56.516Z,7.00
2023-01-11T19:57:29.151Z,8.08
2023-01-11T20:00:03.885Z,7.47
2023-01-11T20:02:37.621Z,7.92
2023-01-11T20:05:13.043Z,7.12
2023-01-11T20:07:45.198Z,6.50
2023-01-11T20:10:15.704Z,7.20
2023-01-11T20:12:46.915Z,6.45
2023-01-11T20:15:18.907Z,7.85
2023-01-11T20:17:51.636Z,6.97
2023-01-11T20:20:23.570Z,7.33
2023-01-11T20:22:54.756Z,6.60
2023-01-11T20:25:29.371Z,7.37
2023-01-11T20:28:02.609Z,7.10
2023-01-11T20:30:32.112Z,7.47
2023-01-11T20:33:02.543Z,7.62
2023-01-11T20:35:33.035Z,6.50
2023-01-11T20:38:03.891Z,6.70
2023-01-11T20:40:37.381Z,7.47
2023-01-11T20:43:08.511Z,6.60
2023-01-11T20:45:39.805Z,6.78
2023-01-11T20:48:12.655Z,6.12
2023-01-11T20:50:43.218Z,6.37
2023-01-11T20:53:15.962Z,6.10
2023-01-11T20:55:46.442Z,5.72
2023-01-11T20:58:16.954Z,5.78
2023-01-11T21:00:47.447Z,6.47
2023-01-11T21:03:19.615Z,5.90
2023-01-11T21:05:53.805Z,6.00
2023-01-11T21:08:24.736Z,6.35
2023-01-11T21:10:56.514Z,6.42
2023-01-11T21:13:26.945Z,5.72
2023-01-11T21:15:59.077Z,6.05
2023-01-11T21:18:30.672Z,6.20
2023-01-11T21:21:01.065Z,6.50
2023-01-11T21:23:31.746Z,6.08
2023-01-11T21:26:04.793Z,6.20
2023-01-11T21:28:35.187Z,6.67
2023-01-11T21:31:09.906Z,6.03
2023-01-11T21:33:41.137Z,6.30
2023-01-11T21:36:16.890Z,6.15
2023-01-11T21:38:47.903Z,6.25
2023-01-11T21:41:22.917Z,6.50
2023-01-11T21:43:53.421Z,6.70
2023-01-11T21:46:23.985Z,6.92
2023-01-11T21:48:55.371Z,6.70
2023-01-11T21:51:29.015Z,6.87
2023-01-11T21:54:02.402Z,6.65
2023-01-11T21:56:33.777Z,6.77
2023-01-11T21:59:05.270Z,7.17
2023-01-11T22:01:36.386Z,7.03
2023-01-11T22:04:11.190Z,7.27
2023-01-11T22:06:43.772Z,6.63
2023-01-11T22:09:16.089Z,7.03
2023-01-11T22:11:49.114Z,7.30
2023-01-11T22:14:23.380Z,7.90
2023-01-11T22:16:54.814Z,7.90
2023-01-11T22:19:25.321Z,7.87
2023-01-11T22:21:57.792Z,7.65
2023-01-11T22:24:30.272Z,7.30
2023-01-11T22:27:02.376Z,8.97
2023-01-11T22:29:35.871Z,7.95
2023-01-11T22:32:06.558Z,8.60
2023-01-11T22:34:38.598Z,7.53
2023-01-11T22:37:11.316Z,7.95
2023-01-11T22:39:41.985Z,7.55
2023-01-11T22:42:13.989Z,8.10
2023-01-11T22:44:46.251Z,7.63
2023-01-11T22:47:17.623Z,7.83
2023-01-11T22:49:52.407Z,8.13
2023-01-11T22:52:23.420Z,7.47
2023-01-11T22:54:56.504Z,9.03
2023-01-11T22:57:27.315Z,7.78
2023-01-11T22:59:59.368Z,9.13
2023-01-11T23:02:34.513Z,7.87
2023-01-11T23:05:11.433Z,7.22
2023-01-11T23:07:44.724Z,6.95
2023-01-11T23:10:19.368Z,7.22
2023-01-11T23:13:11.577Z,10.48
2023-01-11T23:15:44.265Z,8.58
2023-01-11T23:18:16.151Z,7.95
2023-01-11T23:20:48.021Z,7.47
2023-01-11T23:23:20.097Z,7.22
2023-01-11T23:25:53.632Z,7.42
2023-01-11T23:28:24.623Z,7.42
2023-01-11T23:30:57.610Z,6.97
2023-01-11T23:33:28.907Z,7.03
2023-01-11T23:36:00.363Z,7.40
2023-01-11T23:38:32.936Z,7.05
2023-01-11T23:41:34.008Z,6.47
2023-01-11T23:44:09.336Z,7.28
2023-01-11T23:46:59.322Z,7.35
2023-01-11T23:49:34.064Z,7.03
2023-01-11T23:52:05.711Z,7.50
2023-01-11T23:54:37.510Z,6.83
2023-01-11T23:57:10.014Z,7.10
2023-01-11T23:59:44.113Z,6.73
